Robbins, CA (95676)

2:25 PM PDT on September 04, 2015 (GMT -0700)
Buchignani & Yeung Pistachio Orchard | | Change Station
CLOSE
Current Station
Personal Weather Station
Location: Woodland, CA
Elevation: 46 ft
Nearby Weather Stations

Elev 46 ft 38.72 °N, 121.75 °W | Updated 14 minutes ago

Clear
Clear
80.8 °F
Feels Like 80 °F
N
0.0
Wind Variable Wind from East
Gusts 5.0 mph

Today
High -- | Low -- °F
--% Chance of Precip.
Yesterday
High -- | Low -- °F
Precip. -- in
6:38 AM 7:32 PM
Waning Gibbous, 56% visible
Pressure 29.80 in
Visibility 10.0 miles
Clouds Clear
Heat Index 80 °F
Dew Point 49 °F
Humidity 33%
Rainfall 0.00 in
Snow Depth Not available.
UV 9 out of 12
Pollen 8.90 out of 12
Air Quality Not available.
Flu Activity Not available.
METAR KSMF 042053Z VRB05G14KT 10SM CLR 26/06 A2980 RMK AO2 SLP091 T02560056 58008
Pressure 29.80 in
Visibility 10.0 miles
Clouds Clear
Heat Index 80 °F
Dew Point 49 °F
Humidity 33%
Rainfall 0.00 in
Snow Depth Not available.
UV 9 out of 12
Pollen 8.90 out of 12
Air Quality Not available.
Flu Activity Not available.
METAR KSMF 042053Z VRB05G14KT 10SM CLR 26/06 A2980 RMK AO2 SLP091 T02560056 58008

10-Day Weather Forecast

×

Almanac

Astronomy

Sep. 04, 2015 Rise Set
Actual Time
Civil Twilight
Nautical Twilight
Astronomical Twilight
Moon
Length of Visible Light
Length of Day
Tomorrow will be .
, % of the Moon is Illuminated

Today's Extremes

State Highs State Lows

Community

WunderPhotos

Upload Photos

1,852,297 photos uploaded!

WunderBlogs® & News

Nearby

Air Quality

  Air Quality AQ Index Pollutant
Not available.

Snow Depth

Station Depth Elevation

Earthquake Activity

City Distance Mag. Time & Date
Minimum magnitude displayed is 2.5.

Coastal Water Temperatures

Place Temperature

Stations

Nearby Weather Stations

Station Location Temp. Windchill Dew Point Humidity Wind Precip. Elev Updated Type